DW9169 Weather Reports


time (UTC)temp
C
wind
direction
speed
KPH
gust
KPH
rain 1hr
cm
rain 24hr
cm
rain mn
cm
humidity
%
barometer
mb
20190424154407 13 165 4.8 14.5 0.05 0.13 0.13 81 998.8
20190424153907 14 223 8.0 25.7 0.05 0.13 0.13 81 998.9
20190424153407 14 149 8.0 24.1 0.05 0.13 0.13 80 999.0
20190424152908 14 163 4.8 19.3 0.05 0.13 0.13 79 998.6
20190424152408 15 177 4.8 12.9 0.05 0.13 0.13 79 998.5
20190424151907 15 208 4.8 20.9 0.03 0.10 0.10 78 998.5
20190424151407 15 195 9.7 22.5 0.03 0.10 0.10 76 998.4
20190424150907 16 156 9.7 25.7 0.00 0.08 0.08 75 998.3
20190424150407 16 73 4.8 19.3 0.00 0.08 0.08 73 998.1
20190424145907 16 188 8.0 25.7 0.00 0.08 0.08 73 997.9
20190424145407 16 188 8.0 22.5 0.00 0.08 0.08 74 997.8
20190424144907 16 205 14.5 27.4 0.00 0.08 0.08 74 997.6
20190424144407 16 192 8.0 16.1 0.00 0.08 0.08 74 997.7
20190424143907 16 199 8.0 22.5 0.00 0.08 0.08 73 997.6
20190424143407 16 154 8.0 29.0 0.00 0.08 0.08 73 997.6
20190424142907 16 189 12.9 24.1 0.00 0.08 0.08 73 997.7
20190424142407 16 234 8.0 25.7 0.03 0.08 0.08 77 997.7
20190424141907 16 162 8.0 20.9 0.08 0.08 0.08 80 997.7
20190424141407 16 154 8.0 19.3 0.08 0.08 0.08 79 997.7
20190424140908 15 175 8.0 19.3 0.08 0.08 0.08 80 997.7
20190424140408 15 232 4.8 19.3 0.08 0.08 0.08 83 997.9
20190424135907 15 240 4.8 20.9 0.08 0.08 0.08 87 998.0
20190424135407 14 188 4.8 14.5 0.08 0.08 0.08 89 998.1
20190424134907 13 230 4.8 9.7 0.08 0.08 0.08 88 998.3
20190424134408 13 220 6.4 19.3 0.08 0.08 0.08 88 998.3
20190424133908 13 251 4.8 22.5 0.08 0.08 0.08 86 998.3
20190424133407 13 233 9.7 24.1 0.08 0.08 0.08 85 998.5
20190424132907 14 219 12.9 29.0 0.08 0.08 0.08 80 998.6
20190424132407 16 214 17.7 33.8 0.05 0.05 0.05 73 998.5
20190424131907 19 162 14.5 37.0 0.00 0.00 0.00 58 998.1
20190424131407 20 196 12.9 32.2 0.00 0.00 0.00 57 997.2
20190424130907 20 236 9.7 22.5 0.00 0.00 0.00 57 996.9
20190424130407 20 210 4.8 22.5 0.00 0.00 0.00 59 996.8
20190424125907 20 228 6.4 24.1 0.00 0.00 0.00 57 996.8
20190424125407 20 245 4.8 19.3 0.00 0.00 0.00 58 996.8
20190424124908 20 162 8.0 20.9 0.00 0.00 0.00 58 996.9
20190424124408 20 197 4.8 24.1 0.00 0.00 0.00 57 996.9
20190424123907 20 188 9.7 24.1 0.00 0.00 0.00 56 996.9
20190424123407 20 133 12.9 38.6 0.00 0.00 0.00 55 996.8
20190424122908 21 198 4.8 19.3 0.00 0.00 0.00 55 996.8
20190424122407 21 188 8.0 29.0 0.00 0.00 0.00 53 996.7
20190424121907 21 170 11.3 27.4 0.00 0.00 0.00 53 996.8
20190424121407 21 215 11.3 29.0 0.00 0.00 0.00 53 996.9
20190424120907 21 211 9.7 22.5 0.00 0.00 0.00 58 996.6
20190424120407 20 166 8.0 20.9 0.00 0.00 0.00 58 996.7
20190424115907 20 192 3.2 12.9 0.00 0.00 0.00 57 996.8
20190424115408 20 219 8.0 22.5 0.00 0.00 0.00 57 996.8
20190424114907 20 180 8.0 22.5 0.00 0.00 0.00 56 996.9
20190424114407 20 160 9.7 22.5 0.00 0.00 0.00 56 997.0
20190424113907 20 155 6.4 20.9 0.00 0.00 0.00 55 996.9
20190424113407 20 240 8.0 22.5 0.00 0.00 0.00 54 996.8
20190424112907 21 121 8.0 24.1 0.00 0.00 0.00 54 996.7
20190424112407 21 188 8.0 20.9 0.00 0.00 0.00 54 996.7
20190424111907 21 189 8.0 20.9 0.00 0.00 0.00 55 996.6
20190424111408 20 197 9.7 19.3 0.00 0.00 0.00 54 996.7
20190424110907 21 234 9.7 22.5 0.00 0.00 0.00 53 996.7
20190424110407 21 147 8.0 27.4 0.00 0.00 0.00 53 996.7
20190424105907 21 143 14.5 25.7 0.00 0.00 0.00 52 996.6
20190424105407 21 139 9.7 24.1 0.00 0.00 0.00 54 996.6
20190424104908 21 151 4.8 19.3 0.00 0.00 0.00 55 996.6
20190424104407 21 208 9.7 29.0 0.00 0.00 0.00 54 996.6
20190424103907 21 204 11.3 29.0 0.00 0.00 0.00 52 996.6
20190424103407 21 121 4.8 22.5 0.00 0.00 0.00 54 996.5
20190424102907 20 182 8.0 24.1 0.00 0.00 0.00 54 996.4
20190424102407 20 169 11.3 22.5 0.00 0.00 0.00 54 996.5
20190424101907 20 184 8.0 25.7 0.00 0.00 0.00 55 996.5
20190424101407 20 134 9.7 20.9 0.00 0.00 0.00 54 996.5
20190424100907 20 197 8.0 19.3 0.00 0.00 0.00 56 996.5
20190424100407 20 145 8.0 22.5 0.00 0.00 0.00 58 996.5
20190424095907 20 126 4.8 24.1 0.00 0.00 0.00 60 996.6
20190424095407 20 132 4.8 20.9 0.00 0.00 0.00 60 996.7
20190424094907 20 134 4.8 24.1 0.00 0.00 0.00 61 996.7
20190424094407 20 176 9.7 24.1 0.00 0.00 0.00 61 996.7
20190424093907 19 199 9.7 25.7 0.00 0.00 0.00 61 996.8
20190424093407 19 161 8.0 32.2 0.00 0.00 0.00 61 996.7
20190424092908 19 176 8.0 20.9 0.00 0.00 0.00 62 996.8
20190424092407 19 142 8.0 19.3 0.00 0.00 0.00 62 996.8
20190424091907 19 188 4.8 22.5 0.00 0.00 0.00 63 996.7
20190424091408 18 49 4.8 24.1 0.00 0.00 0.00 64 996.6
20190424090907 18 146 4.8 19.3 0.00 0.00 0.00 65 996.6
20190424090407 18 209 8.0 20.9 0.00 0.00 0.00 63 996.7
20190424085907 18 118 4.8 22.5 0.00 0.00 0.00 64 996.7
20190424085407 18 167 8.0 27.4 0.00 0.00 0.00 64 996.8
20190424084907 18 152 9.7 27.4 0.00 0.00 0.00 64 996.7
20190424084408 18 198 4.8 24.1 0.00 0.00 0.00 66 996.6
20190424083907 18 127 9.7 20.9 0.00 0.00 0.00 64 996.6
20190424083407 18 86 9.7 24.1 0.00 0.00 0.00 66 996.6
20190424082910 18 209 8.0 24.1 0.00 0.00 0.00 65 996.5
20190424082407 18 193 9.7 25.7 0.00 0.00 0.00 66 996.5
20190424081907 18 136 6.4 19.3 0.00 0.00 0.00 67 996.4
20190424081407 18 191 6.4 19.3 0.00 0.00 0.00 68 996.3
20190424080907 17 150 4.8 14.5 0.00 0.00 0.00 69 996.3
20190424080407 17 171 9.7 24.1 0.00 0.00 0.00 68 996.2
20190424075907 17 139 8.0 24.1 0.00 0.00 0.00 69 996.2
20190424075407 17 183 4.8 19.3 0.00 0.00 0.00 71 996.3
20190424074908 17 184 8.0 19.3 0.00 0.00 0.00 71 996.2
20190424074408 17 128 4.8 12.9 0.00 0.00 0.00 71 996.1
20190424073907 17 182 8.0 19.3 0.00 0.00 0.00 72 996.0
20190424073408 16 138 6.4 19.3 0.00 0.00 0.00 72 996.0
20190424072907 16 230 6.4 20.9 0.00 0.00 0.00 73 996.1
20190424072407 16 191 8.0 19.3 0.00 0.00 0.00 73 996.0
20190424071907 16 181 3.2 14.5 0.00 0.00 0.00 73 996.0
20190424071407 16 150 6.4 19.3 0.00 0.00 0.00 73 996.0
20190424070907 16 241 4.8 16.1 0.00 0.00 0.00 73 996.0
20190424070407 16 143 6.4 29.0 0.00 0.00 0.00 73 996.0
20190424065907 16 142 8.0 19.3 0.00 0.00 0.00 74 996.1
20190424065407 16 196 4.8 14.5 0.00 0.00 0.00 75 996.0
20190424064407 15 149 3.2 19.3 0.00 0.00 0.00 76 996.0
20190424063907 15 155 4.8 14.5 0.00 0.00 0.00 78 996.0
20190424063407 15 151 4.8 12.9 0.00 0.00 0.00 79 996.0
20190424062907 14 176 3.2 11.3 0.00 0.00 0.00 79 995.9
20190424062407 14 147 3.2 9.7 0.00 0.00 0.00 79 995.9
20190424061907 14 77 1.6 8.0 0.00 0.00 0.00 79 996.0
20190424061407 14 126 1.6 12.9 0.00 0.00 0.00 80 995.8
20190424061040 13 244 0.0 4.8 0.00 0.00 0.00 80 995.8
20190424060407 13 112 3.2 12.9 0.00 0.00 0.00 80 995.8
20190424055907 13 126 1.6 8.0 0.00 0.00 0.00 81 995.8
20190424055406 13 128 3.2 8.0 0.00 0.00 0.00 81 995.8
20190424054908 13 111 0.0 4.8 0.00 0.00 0.00 81 995.7
20190424054407 13 95 1.6 8.0 0.00 0.00 0.00 81 995.7
20190424053907 13 89 1.6 8.0 0.00 0.00 0.00 81 995.7
20190424053407 13 105 1.6 4.8 0.00 0.00 0.00 81 995.7
20190424052907 13 139 0.0 3.2 0.00 0.00 0.00 81 995.6
20190424052407 13 88 1.6 4.8 0.00 0.00 0.00 81 995.5
20190424051907 13 99 1.6 4.8 0.00 0.00 0.00 81 995.6
20190424051407 13 128 0.0 4.8 0.00 0.00 0.00 81 995.5
20190424050907 13 152 1.6 8.0 0.00 0.00 0.00 81 995.4
20190424050407 13 114 1.6 8.0 0.00 0.00 0.00 81 995.5
20190424045907 13 171 1.6 4.8 0.00 0.00 0.00 81 995.5
20190424045407 13 142 3.2 11.3 0.00 0.00 0.00 82 995.5
20190424044906 13 171 1.6 11.3 0.00 0.00 0.00 82 995.4
20190424044407 13 97 1.6 11.3 0.00 0.00 0.00 82 995.4
20190424043907 13 145 3.2 12.9 0.00 0.00 0.00 82 995.4
20190424043407 13 98 1.6 8.0 0.00 0.00 0.00 83 995.4
20190424042907 13 158 4.8 11.3 0.00 0.00 0.00 83 995.4
20190424042407 13 134 4.8 11.3 0.00 0.00 0.00 83 995.3
20190424041907 12 129 3.2 8.0 0.00 0.00 0.00 84 995.3
20190424041407 12 136 1.6 14.5 0.00 0.00 0.00 84 995.3
20190424040907 12 153 1.6 8.0 0.00 0.00 0.00 85 995.3
20190424040407 12 129 3.2 9.7 0.00 0.00 0.00 85 995.2
20190424035907 12 93 1.6 4.8 0.00 0.00 0.00 85 995.2
20190424035407 12 84 0.0 4.8 0.00 0.00 0.00 86 995.3
20190424034907 12 70 0.0 8.0 0.00 0.00 0.00 86 995.3
20190424034407 12 101 1.6 4.8 0.00 0.00 0.00 87 995.3
20190424033907 12 108 1.6 11.3 0.00 0.00 0.00 87 995.3
20190424033407 12 112 0.0 4.8 0.00 0.00 0.00 87 995.4
20190424032907 12 117 1.6 8.0 0.00 0.00 0.00 87 995.4
20190424032406 12 118 1.6 8.0 0.00 0.00 0.00 88 995.3
20190424031907 12 81 3.2 12.9 0.00 0.00 0.00 89 995.3
20190424031407 12 78 1.6 4.8 0.00 0.00 0.00 90 995.3
20190424030907 12 76 1.6 4.8 0.00 0.00 0.00 91 995.2
20190424030407 11 87 3.2 11.3 0.00 0.00 0.00 92 995.2
20190424025907 11 99 1.6 8.0 0.00 0.00 0.00 92 995.3
20190424025407 11 103 0.0 4.8 0.00 0.00 0.00 93 995.3
20190424024906 11 90 0.0 1.6 0.00 0.00 0.00 93 995.3
20190424024407 11 89 0.0 0.0 0.00 0.00 0.00 93 995.3
20190424023907 11 90 0.0 3.2 0.00 0.00 0.00 92 995.3
20190424023407 11 91 0.0 1.6 0.00 0.00 0.00 92 995.3
20190424022907 11 91 0.0 0.0 0.00 0.00 0.00 92 995.4
20190424022407 11 91 0.0 0.0 0.00 0.00 0.00 92 995.3
20190424021906 11 91 0.0 0.0 0.00 0.00 0.00 91 995.3
20190424021407 11 91 0.0 0.0 0.00 0.00 0.00 90 995.3
20190424020907 11 91 0.0 0.0 0.00 0.00 0.00 90 995.3
20190424020406 11 91 0.0 0.0 0.00 0.00 0.00 90 995.3
20190424015907 11 91 0.0 0.0 0.00 0.00 0.00 89 995.3
20190424015407 11 91 0.0 0.0 0.00 0.00 0.00 89 995.4
20190424014907 11 91 0.0 0.0 0.00 0.00 0.00 89 995.4
20190424014407 11 91 0.0 4.8 0.00 0.00 0.00 89 995.3
20190424013907 12 101 0.0 0.0 0.00 0.00 0.00 88 995.3
20190424013407 12 103 0.0 0.0 0.00 0.00 0.00 88 995.3
20190424012907 12 103 0.0 0.0 0.00 0.00 0.00 88 995.4
20190424012407 12 103 0.0 0.0 0.00 0.00 0.00 87 995.5
20190424011907 12 103 0.0 0.0 0.00 0.00 0.00 87 995.5
20190424011407 12 103 0.0 4.8 0.00 0.00 0.00 86 995.4
20190424010907 12 117 0.0 3.2 0.00 0.00 0.00 86 995.5
20190424010407 12 117 0.0 0.0 0.00 0.00 0.00 85 995.4
20190424005907 12 117 0.0 0.0 0.00 0.00 0.00 85 995.4
20190424005407 12 117 0.0 0.0 0.00 0.00 0.00 84 995.4
20190424004906 13 117 0.0 1.6 0.00 0.00 0.00 84 995.3
20190424004407 13 117 0.0 0.0 0.00 0.00 0.00 84 995.4
20190424003907 13 117 0.0 3.2 0.00 0.00 0.00 84 995.3
20190424003406 13 121 0.0 4.8 0.00 0.00 0.00 84 995.4
20190424002907 13 108 0.0 3.2 0.00 0.00 0.00 84 995.4
20190424002407 13 155 0.0 4.8 0.00 0.00 0.00 84 995.4
20190424001907 13 144 0.0 4.8 0.00 0.00 0.00 84 995.4
20190424001406 13 142 0.0 4.8 0.00 0.00 0.00 84 995.3
20190424000907 13 92 0.0 1.6 0.00 0.00 0.00 84 995.4
20190424000407 13 90 0.0 4.8 0.00 0.00 0.00 84 995.3
20190423235907 13 130 3.2 9.7 0.00 0.00 0.00 84 995.3
20190423235407 13 115 1.6 4.8 0.00 0.00 0.00 85 995.3
20190423234908 13 159 1.6 4.8 0.00 0.00 0.00 85 995.3
20190423234408 13 150 1.6 8.0 0.00 0.00 0.00 85 995.3
20190423233907 13 181 1.6 4.8 0.00 0.00 0.00 85 995.3
20190423233407 13 101 0.0 4.8 0.00 0.00 0.00 85 995.3
20190423232907 13 94 0.0 1.6 0.00 0.00 0.00 84 995.2
20190423232407 13 94 0.0 3.2 0.00 0.00 0.00 84 995.2
20190423231906 13 96 1.6 4.8 0.00 0.00 0.00 84 995.2
20190423231407 13 101 1.6 3.2 0.00 0.00 0.00 84 995.2
20190423230907 13 105 0.0 3.2 0.00 0.00 0.00 83 995.1
20190423230407 13 136 0.0 3.2 0.00 0.00 0.00 83 995.2
20190423225907 13 136 1.6 9.7 0.00 0.00 0.00 83 995.2
20190423225407 13 123 1.6 4.8 0.00 0.00 0.00 83 995.2
20190423224906 13 98 1.6 4.8 0.00 0.00 0.00 83 995.3
20190423224407 13 129 0.0 3.2 0.00 0.00 0.00 83 995.2
20190423223907 13 115 0.0 4.8 0.00 0.00 0.00 83 995.2
20190423223407 13 87 0.0 8.0 0.00 0.00 0.00 83 995.1
20190423222906 13 108 1.6 3.2 0.00 0.00 0.00 82 995.1
20190423222407 13 121 0.0 1.6 0.00 0.00 0.00 82 995.2
20190423221907 13 121 0.0 1.6 0.00 0.00 0.00 82 995.1
20190423221407 13 121 0.0 1.6 0.00 0.00 0.00 81 995.1
20190423220907 13 128 0.0 0.0 0.00 0.00 0.00 80 995.1
20190423220406 14 128 0.0 0.0 0.00 0.00 0.00 79 995.1
20190423215907 14 128 0.0 0.0 0.00 0.00 0.00 78 995.2
20190423215407 14 128 0.0 1.6 0.00 0.00 0.00 78 995.1
20190423214906 14 128 0.0 1.6 0.00 0.00 0.00 77 995.1
20190423214407 14 128 0.0 0.0 0.00 0.00 0.00 77 995.2
20190423213907 15 128 0.0 0.0 0.00 0.00 0.00 77 995.2
20190423213407 15 128 0.0 0.0 0.00 0.00 0.00 77 995.1
20190423212906 15 128 0.0 1.6 0.00 0.00 0.00 76 995.1
20190423212406 15 128 0.0 1.6 0.00 0.00 0.00 75 995.1
20190423211907 15 128 0.0 1.6 0.00 0.00 0.00 75 995.1
20190423211407 15 128 0.0 0.0 0.00 0.00 0.00 74 995.0
20190423210907 15 127 0.0 3.2 0.00 0.00 0.00 74 995.0
20190423210407 15 128 0.0 1.6 0.00 0.00 0.00 73 995.0
20190423205907 15 136 0.0 1.6 0.00 0.00 0.00 72 995.0
20190423205407 15 136 0.0 1.6 0.00 0.00 0.00 72 995.0
20190423204907 16 136 0.0 3.2 0.00 0.00 0.00 71 995.0
20190423204407 16 113 0.0 0.0 0.00 0.00 0.00 70 995.0
20190423203906 16 113 0.0 3.2 0.00 0.00 0.00 69 994.9
20190423203407 16 83 0.0 3.2 0.00 0.00 0.00 69 994.9
20190423202906 16 83 0.0 3.2 0.00 0.00 0.00 69 994.9
20190423202407 16 82 1.6 4.8 0.00 0.00 0.00 69 994.9
20190423201907 16 110 0.0 3.2 0.00 0.00 0.00 69 994.9
20190423201406 16 101 0.0 3.2 0.00 0.00 0.00 69 995.0
20190423200907 16 101 0.0 1.6 0.00 0.00 0.00 68 994.9
20190423200406 16 122 1.6 4.8 0.00 0.00 0.00 68 994.9
20190423195907 16 140 0.0 1.6 0.00 0.00 0.00 68 994.9
20190423195407 16 141 1.6 4.8 0.00 0.00 0.00 68 994.8
20190423194907 16 132 0.0 3.2 0.00 0.00 0.00 68 994.8
20190423194407 16 136 0.0 1.6 0.00 0.00 0.00 68 994.8
20190423193906 16 132 0.0 3.2 0.00 0.00 0.00 67 994.8
20190423193407 16 157 3.2 4.8 0.00 0.00 0.00 67 994.8
20190423192906 16 188 1.6 4.8 0.00 0.00 0.00 66 994.8
20190423192407 16 145 1.6 3.2 0.00 0.00 0.00 66 994.7
20190423191907 17 143 0.0 1.6 0.00 0.00 0.00 66 994.7
20190423191406 17 144 0.0 1.6 0.00 0.00 0.00 66 994.7
20190423190907 17 144 0.0 1.6 0.00 0.00 0.00 65 994.6
20190423190406 17 144 0.0 3.2 0.00 0.00 0.00 64 994.7
20190423185907 17 143 0.0 3.2 0.00 0.00 0.00 64 994.6
20190423185407 17 150 1.6 4.8 0.00 0.00 0.00 64 994.5
20190423184907 17 150 0.0 4.8 0.00 0.00 0.00 63 994.5
20190423184407 17 139 0.0 3.2 0.00 0.00 0.00 63 994.5
20190423183906 17 140 0.0 1.6 0.00 0.00 0.00 62 994.4
20190423183407 17 140 0.0 1.6 0.00 0.00 0.00 62 994.3
20190423182907 17 140 1.6 4.8 0.00 0.00 0.00 61 994.3
20190423182407 17 159 1.6 8.0 0.00 0.00 0.00 61 994.2
20190423181906 18 148 1.6 8.0 0.00 0.00 0.00 61 994.2
20190423181406 18 118 1.6 9.7 0.00 0.00 0.00 60 994.2
20190423180906 18 145 1.6 8.0 0.00 0.00 0.00 60 994.2
20190423180407 18 220 3.2 11.3 0.00 0.00 0.00 60 994.2
20190423175906 18 250 0.0 1.6 0.00 0.00 0.00 61 994.2
20190423175407 18 250 0.0 0.0 0.00 0.00 0.00 60 994.1
20190423174906 18 250 0.0 4.8 0.00 0.00 0.00 59 994.0
20190423174406 18 250 0.0 1.6 0.00 0.00 0.00 58 994.0
20190423173907 18 251 0.0 1.6 0.00 0.00 0.00 58 994.0
20190423173406 18 251 0.0 3.2 0.00 0.00 0.00 58 993.9
20190423172906 19 232 0.0 1.6 0.00 0.00 0.00 58 993.9
20190423172406 19 230 0.0 3.2 0.00 0.00 0.00 57 993.9
20190423171908 19 150 1.6 4.8 0.00 0.00 0.00 56 993.9
20190423171407 19 159 1.6 8.0 0.00 0.00 0.00 56 993.9
20190423170907 19 198 1.6 4.8 0.00 0.00 0.00 55 993.9
20190423170407 20 203 1.6 4.8 0.00 0.00 0.00 55 993.9
20190423165907 20 217 0.0 4.8 0.00 0.00 0.00 55 993.8
20190423165406 20 209 1.6 4.8 0.00 0.00 0.00 54 993.8
20190423164907 20 132 0.0 4.8 0.00 0.00 0.00 54 993.8
20190423164407 20 159 3.2 8.0 0.00 0.00 0.00 53 993.8
20190423163906 20 135 0.0 4.8 0.00 0.00 0.00 52 993.8
20190423163406 20 147 1.6 4.8 0.00 0.00 0.00 51 993.8
20190423162907 20 147 1.6 4.8 0.00 0.00 0.00 51 993.8
20190423162406 20 106 3.2 9.7 0.00 0.00 0.00 49 993.8
20190423161906 21 105 1.6 4.8 0.00 0.00 0.00 50 993.9
20190423161407 20 87 4.8 11.3 0.00 0.00 0.00 49 993.9
20190423160907 20 107 1.6 4.8 0.00 0.00 0.00 50 993.9
20190423160406 20 94 3.2 8.0 0.00 0.00 0.00 50 993.9
20190423155906 20 98 1.6 9.7 0.00 0.00 0.00 49 993.9
20190423155407 20 93 1.6 11.3 0.00 0.00 0.00 50 993.9
20190423154906 20 106 3.2 8.0 0.00 0.00 0.00 47 993.9